createdAt,value
2023-02-09T00:03:46.442Z,-2.42
2023-02-09T00:08:43.485Z,-3.09
2023-02-09T00:13:40.274Z,-2.45
2023-02-09T00:18:37.158Z,-2.38
2023-02-09T00:23:37.188Z,-2.93
2023-02-09T00:28:34.708Z,-2.48
2023-02-09T00:33:31.575Z,-2.67
2023-02-09T00:38:28.484Z,-2.61
2023-02-09T00:43:26.157Z,-3.03
2023-02-09T00:48:23.440Z,-2.79
2023-02-09T00:53:21.659Z,-2.67
2023-02-09T00:58:18.837Z,-2.72
2023-02-09T01:03:16.336Z,-2.83
2023-02-09T01:08:13.320Z,-2.59
2023-02-09T01:13:10.518Z,-2.67
2023-02-09T01:18:07.496Z,-2.89
2023-02-09T01:23:05.071Z,-2.74
2023-02-09T01:28:01.923Z,-3.04
2023-02-09T01:33:01.559Z,-3.13
2023-02-09T01:37:58.516Z,-3.50
2023-02-09T01:42:56.085Z,-2.78
2023-02-09T01:47:58.408Z,-2.82
2023-02-09T01:52:55.497Z,-3.18
2023-02-09T01:57:57.481Z,-3.11
2023-02-09T02:02:57.611Z,-2.83
2023-02-09T02:08:01.120Z,-3.18
2023-02-09T02:13:02.033Z,-3.22
2023-02-09T02:18:26.880Z,-3.11
2023-02-09T02:23:30.344Z,-3.11
2023-02-09T02:28:44.610Z,-3.23
2023-02-09T02:33:51.686Z,-2.99
2023-02-09T02:38:55.033Z,-2.97
2023-02-09T02:43:59.176Z,-2.97
2023-02-09T02:49:03.657Z,-3.33
2023-02-09T02:54:04.397Z,-3.09
2023-02-09T02:59:06.290Z,-3.09
2023-02-09T03:04:06.450Z,-3.08
2023-02-09T03:09:03.996Z,-3.00
2023-02-09T03:14:18.115Z,-3.00
2023-02-09T03:19:29.869Z,-3.09
2023-02-09T03:24:36.220Z,-3.08
2023-02-09T03:29:35.192Z,-3.56
2023-02-09T03:34:32.909Z,-3.15
2023-02-09T03:39:29.771Z,-3.33
2023-02-09T03:44:26.549Z,-3.56
2023-02-09T03:49:25.278Z,-3.29
2023-02-09T03:54:22.804Z,-3.27
2023-02-09T03:59:20.971Z,-3.46
2023-02-09T04:04:17.990Z,-3.25
2023-02-09T04:09:15.158Z,-3.55
2023-02-09T04:14:14.458Z,-3.41
2023-02-09T04:19:11.791Z,-3.28
2023-02-09T04:24:09.027Z,-3.63
2023-02-09T04:29:05.863Z,-3.29
2023-02-09T04:34:03.430Z,-3.24
2023-02-09T04:39:00.206Z,-3.35
2023-02-09T04:43:56.911Z,-3.40
2023-02-09T04:48:53.975Z,-3.59
2023-02-09T04:53:51.572Z,-3.74
2023-02-09T04:59:06.315Z,-4.11
2023-02-09T05:04:03.186Z,-3.87
2023-02-09T05:09:00.824Z,-4.21
2023-02-09T05:13:57.764Z,-4.18
2023-02-09T05:18:54.894Z,-4.15
2023-02-09T05:23:51.834Z,-4.24
2023-02-09T05:28:49.443Z,-4.40
2023-02-09T05:33:46.483Z,-4.71
2023-02-09T05:38:43.352Z,-4.28
2023-02-09T05:43:42.899Z,-4.24
2023-02-09T05:48:40.912Z,-4.91
2023-02-09T05:53:37.961Z,-4.46
2023-02-09T05:58:34.765Z,-4.59
2023-02-09T06:03:32.074Z,-4.69
2023-02-09T06:08:29.801Z,-4.85
2023-02-09T06:13:26.582Z,-5.07
2023-02-09T06:18:23.541Z,-4.67
2023-02-09T06:23:20.239Z,-4.43
2023-02-09T06:28:17.780Z,-4.46
2023-02-09T06:33:14.576Z,-4.70
2023-02-09T06:38:18.851Z,-4.19
2023-02-09T06:43:16.117Z,-4.72
2023-02-09T06:48:13.638Z,-4.52
2023-02-09T06:53:19.422Z,-4.08
2023-02-09T06:58:16.251Z,-3.84
2023-02-09T07:03:15.732Z,-3.79
2023-02-09T07:08:16.850Z,-3.62
2023-02-09T07:13:13.793Z,-3.84
2023-02-09T07:18:11.884Z,-3.51
2023-02-09T07:23:11.134Z,-4.00
2023-02-09T07:28:08.097Z,-3.39
2023-02-09T07:33:08.591Z,-3.37
2023-02-09T07:38:05.622Z,-3.12
2023-02-09T07:43:06.772Z,-3.17
2023-02-09T07:48:03.696Z,-2.87
2023-02-09T07:53:01.925Z,-3.21
2023-02-09T07:58:00.735Z,-3.07
2023-02-09T08:02:59.791Z,-2.94
2023-02-09T08:07:57.043Z,-3.03
2023-02-09T08:13:02.978Z,-2.67
2023-02-09T08:18:02.384Z,-2.57
2023-02-09T08:23:07.504Z,-2.76
2023-02-09T08:28:08.298Z,-2.26
2023-02-09T08:33:06.085Z,-2.14
2023-02-09T08:38:05.104Z,-1.95
2023-02-09T08:43:04.192Z,-1.84
2023-02-09T08:48:00.945Z,-2.10
2023-02-09T08:52:59.248Z,-1.79
2023-02-09T08:57:56.106Z,-1.75
2023-02-09T09:02:53.074Z,-1.58
2023-02-09T09:07:56.386Z,-1.40
2023-02-09T09:12:53.925Z,-1.60
2023-02-09T09:17:50.970Z,-1.16
2023-02-09T09:22:47.745Z,-1.04
2023-02-09T09:27:46.837Z,-1.08
2023-02-09T09:32:44.537Z,-1.18
2023-02-09T09:37:41.518Z,-0.90
2023-02-09T09:42:42.263Z,-1.39
2023-02-09T09:47:41.117Z,-0.66
2023-02-09T09:52:43.021Z,-0.62
2023-02-09T09:57:44.217Z,-0.53
2023-02-09T10:02:41.270Z,-0.41
2023-02-09T10:07:43.258Z,-0.69
2023-02-09T10:12:47.851Z,-0.81
2023-02-09T10:17:44.707Z,-0.67
2023-02-09T10:22:44.891Z,-0.36
2023-02-09T10:27:46.727Z,-0.48
2023-02-09T10:32:44.742Z,-0.41
2023-02-09T10:37:43.269Z,-0.11
2023-02-09T10:42:56.687Z,-0.19
2023-02-09T10:47:58.969Z,-0.09
2023-02-09T10:52:59.069Z,-0.23
2023-02-09T10:58:17.631Z,0.23
2023-02-09T11:03:18.802Z,0.17
2023-02-09T11:08:22.263Z,0.10
2023-02-09T11:13:26.182Z,-0.13
2023-02-09T11:18:26.195Z,0.19
2023-02-09T11:23:37.473Z,0.16
2023-02-09T11:28:45.044Z,0.62
2023-02-09T11:33:49.783Z,0.47
2023-02-09T11:38:52.349Z,0.88
2023-02-09T11:43:53.662Z,0.83
2023-02-09T11:48:58.576Z,0.73
2023-02-09T11:54:00.426Z,0.27
2023-02-09T11:59:03.993Z,0.05
2023-02-09T12:04:08.116Z,0.29
2023-02-09T12:09:18.275Z,0.93
2023-02-09T12:14:35.182Z,1.01
2023-02-09T12:19:35.950Z,0.89
2023-02-09T12:24:37.958Z,1.19
2023-02-09T12:29:38.520Z,1.22
2023-02-09T12:34:40.350Z,1.10
2023-02-09T12:39:38.925Z,1.20
2023-02-09T12:44:38.904Z,0.52
2023-02-09T12:49:35.963Z,1.13
2023-02-09T12:54:40.148Z,1.15
2023-02-09T12:59:37.832Z,0.23
2023-02-09T13:04:39.369Z,0.80
2023-02-09T13:09:40.526Z,0.26
2023-02-09T13:14:39.064Z,1.14
2023-02-09T13:20:12.788Z,1.16
2023-02-09T13:25:15.293Z,0.84
2023-02-09T13:30:24.080Z,0.56
2023-02-09T13:35:26.136Z,1.04
2023-02-09T13:40:26.309Z,0.69
2023-02-09T13:45:26.231Z,0.86
2023-02-09T13:50:25.053Z,0.70
2023-02-09T13:55:24.147Z,0.38
2023-02-09T14:00:27.745Z,0.70
2023-02-09T14:05:38.099Z,0.51
2023-02-09T14:10:36.237Z,0.29
2023-02-09T14:15:59.131Z,0.51
2023-02-09T14:21:02.211Z,0.36
2023-02-09T14:26:04.919Z,0.41
2023-02-09T14:31:06.698Z,0.45
2023-02-09T14:36:20.469Z,0.46
2023-02-09T14:41:32.283Z,0.10
2023-02-09T14:46:46.860Z,0.15
2023-02-09T14:51:44.951Z,-0.08
2023-02-09T14:56:42.788Z,0.18
2023-02-09T15:01:40.558Z,-0.51
2023-02-09T15:06:38.221Z,0.01
2023-02-09T15:11:53.445Z,0.06
2023-02-09T15:16:51.294Z,-0.10
2023-02-09T15:22:01.812Z,-0.52
2023-02-09T15:27:03.620Z,-0.11
2023-02-09T15:32:01.593Z,-0.81
2023-02-09T15:36:58.547Z,-0.72
2023-02-09T15:42:13.965Z,-0.50
2023-02-09T15:47:29.717Z,-0.34
2023-02-09T15:52:29.717Z,-0.34
2023-02-09T15:57:26.618Z,-0.41
2023-02-09T16:02:25.902Z,-0.19
2023-02-09T16:07:26.492Z,-0.89
2023-02-09T16:12:24.264Z,-0.63
2023-02-09T16:17:21.301Z,-0.61
2023-02-09T16:22:23.040Z,-0.52
2023-02-09T16:27:23.821Z,-0.78
2023-02-09T16:32:26.326Z,-0.10
2023-02-09T16:37:29.402Z,-0.07
2023-02-09T16:42:32.026Z,-0.29
2023-02-09T16:47:31.545Z,-0.10
2023-02-09T16:52:30.528Z,-0.33
2023-02-09T16:57:29.985Z,-0.56
2023-02-09T17:02:34.875Z,-0.94
2023-02-09T17:07:48.727Z,-0.47
2023-02-09T17:12:52.614Z,-0.71
2023-02-09T17:17:54.994Z,-0.39
2023-02-09T17:22:54.822Z,-0.43
2023-02-09T17:27:52.403Z,-0.72
2023-02-09T17:32:59.344Z,-0.56
2023-02-09T17:37:57.217Z,-1.07
2023-02-09T17:42:54.091Z,-0.76
2023-02-09T17:47:52.653Z,-0.86
2023-02-09T17:52:50.152Z,-0.79
2023-02-09T17:57:48.180Z,-0.89
2023-02-09T18:02:45.216Z,-0.90
2023-02-09T18:07:42.240Z,-0.92
2023-02-09T18:12:39.463Z,-1.24
2023-02-09T18:17:42.437Z,-1.26
2023-02-09T18:22:42.694Z,-1.17
2023-02-09T18:27:39.787Z,-1.86
2023-02-09T18:32:42.234Z,-1.90
2023-02-09T18:37:58.945Z,-1.92
2023-02-09T18:42:56.116Z,-1.71
2023-02-09T18:47:54.239Z,-2.10
2023-02-09T18:52:53.469Z,-1.44
2023-02-09T18:57:51.618Z,-2.06
2023-02-09T19:02:55.502Z,-1.45
2023-02-09T19:07:54.956Z,-2.28
2023-02-09T19:12:52.178Z,-1.64
2023-02-09T19:17:49.813Z,-1.93
2023-02-09T19:22:47.399Z,-1.98
2023-02-09T19:27:45.320Z,-1.87
2023-02-09T19:32:42.199Z,-1.71
2023-02-09T19:37:41.260Z,-1.78
2023-02-09T19:42:38.160Z,-1.93
2023-02-09T19:47:37.059Z,-1.82
2023-02-09T19:52:36.744Z,-2.24
2023-02-09T19:57:33.630Z,-2.44
2023-02-09T20:02:30.531Z,-1.99
2023-02-09T20:07:29.785Z,-1.91
2023-02-09T20:12:27.112Z,-1.96
2023-02-09T20:17:24.185Z,-2.08
2023-02-09T20:22:21.183Z,-2.17
2023-02-09T20:27:18.860Z,-2.75
2023-02-09T20:32:15.872Z,-2.12
2023-02-09T20:37:12.827Z,-2.13
2023-02-09T20:42:28.074Z,-2.25
2023-02-09T20:47:26.180Z,-2.77
2023-02-09T20:52:23.154Z,-2.59
2023-02-09T20:57:20.068Z,-2.51
2023-02-09T21:02:17.111Z,-2.85
2023-02-09T21:07:14.756Z,-2.99
2023-02-09T21:12:11.719Z,-2.42
2023-02-09T21:17:08.610Z,-2.42
2023-02-09T21:22:05.804Z,-2.43
2023-02-09T21:27:05.977Z,-3.01
2023-02-09T21:32:05.362Z,-2.86
2023-02-09T21:37:09.581Z,-2.83
2023-02-09T21:42:25.918Z,-2.98
2023-02-09T21:47:25.590Z,-2.55
2023-02-09T21:52:23.408Z,-2.97
2023-02-09T21:57:22.107Z,-2.73
2023-02-09T22:02:20.238Z,-3.01
2023-02-09T22:07:17.215Z,-2.86
2023-02-09T22:12:14.202Z,-3.14
2023-02-09T22:17:12.060Z,-2.81
2023-02-09T22:22:09.869Z,-3.24
2023-02-09T22:27:06.749Z,-3.06
2023-02-09T22:32:03.808Z,-2.93
2023-02-09T22:37:01.666Z,-3.10
2023-02-09T22:41:59.017Z,-3.45
2023-02-09T22:46:56.274Z,-3.44
2023-02-09T22:51:53.110Z,-3.22
2023-02-09T22:56:51.433Z,-3.00
2023-02-09T23:01:48.420Z,-2.98
2023-02-09T23:06:45.476Z,-3.24
2023-02-09T23:11:43.531Z,-3.00
2023-02-09T23:16:43.136Z,-2.99
2023-02-09T23:21:42.228Z,-3.22
2023-02-09T23:26:39.944Z,-3.05
2023-02-09T23:31:36.968Z,-3.21
2023-02-09T23:36:35.274Z,-3.13
2023-02-09T23:41:33.050Z,-3.64
2023-02-09T23:46:30.142Z,-3.52
2023-02-09T23:51:29.234Z,-4.05
2023-02-09T23:56:29.307Z,-3.75
